Almo Heights, Kentucky
Current Conditions -  °F | °C
As of 2:35 PM on Friday 21 Nov 2014 (Local Time) from KCEY Reporting Station
Overcast Overcast  
Wind Chill:   Ceiling: 7000
Heat Index:   Visibility: 10mi
Dew Point: -4°   Wind: 10mph
Humidity: 43%   Direction: 100°E
Pressure: 30.33"   Gusts: NA
Location:  36.7139°N, 88.3196°W
Report Text: KCEY 212035Z AUTO 10009KT 10SM OVC070 08/M04 A3033 RMK AO1
Loading
Personal Weather Stations






























Interactive Weather Map New forecast layout! Learn more

10-Day Weather Forecast

Advertisements
Track Severe Weather on mobile